createdAt,value
2018-05-03T00:00:17.700Z,3.90
2018-05-03T00:02:45.249Z,3.90
2018-05-03T00:05:13.584Z,3.90
2018-05-03T00:07:41.137Z,3.90
2018-05-03T00:10:08.684Z,3.90
2018-05-03T00:12:36.232Z,3.90
2018-05-03T00:15:03.776Z,3.90
2018-05-03T00:17:31.358Z,3.80
2018-05-03T00:19:58.937Z,3.80
2018-05-03T00:22:26.488Z,3.70
2018-05-03T00:24:54.036Z,3.80
2018-05-03T00:27:21.584Z,3.80
2018-05-03T00:29:49.164Z,3.80
2018-05-03T00:32:16.713Z,3.80
2018-05-03T00:34:44.265Z,3.70
2018-05-03T00:37:11.808Z,3.60
2018-05-03T00:39:39.360Z,3.50
2018-05-03T00:42:06.935Z,3.50
2018-05-03T00:44:34.480Z,3.50
2018-05-03T00:47:02.024Z,3.40
2018-05-03T00:49:29.573Z,3.30
2018-05-03T00:51:57.129Z,3.20
2018-05-03T00:54:37.156Z,3.20
2018-05-03T00:57:04.708Z,3.20
2018-05-03T00:59:32.275Z,3.20
2018-05-03T01:01:59.821Z,3.20
2018-05-03T01:04:27.400Z,3.10
2018-05-03T01:06:54.948Z,3.00
2018-05-03T01:09:22.491Z,3.00
2018-05-03T01:11:50.049Z,3.00
2018-05-03T01:14:17.596Z,3.00
2018-05-03T01:16:45.173Z,3.00
2018-05-03T01:19:12.719Z,3.00
2018-05-03T01:21:40.269Z,3.00
2018-05-03T01:24:07.818Z,3.00
2018-05-03T01:26:35.367Z,3.00
2018-05-03T01:29:02.944Z,2.90
2018-05-03T01:31:30.496Z,3.00
2018-05-03T01:33:58.044Z,3.00
2018-05-03T01:36:28.037Z,3.10
2018-05-03T01:38:55.585Z,3.00
2018-05-03T01:41:23.161Z,3.00
2018-05-03T01:43:50.707Z,3.00
2018-05-03T01:46:18.248Z,3.00
2018-05-03T01:48:45.804Z,2.90
2018-05-03T01:51:14.116Z,2.70
2018-05-03T01:53:41.695Z,2.70
2018-05-03T01:56:09.255Z,2.60
2018-05-03T01:58:36.804Z,2.60
2018-05-03T02:01:04.353Z,2.70
2018-05-03T02:03:31.952Z,2.60
2018-05-03T02:05:59.764Z,2.70
2018-05-03T02:08:27.314Z,2.60
2018-05-03T02:10:54.876Z,2.60
2018-05-03T02:13:22.439Z,2.60
2018-05-03T02:15:49.988Z,2.60
2018-05-03T02:18:17.565Z,2.70
2018-05-03T02:20:45.122Z,2.60
2018-05-03T02:23:12.668Z,2.60
2018-05-03T02:25:40.216Z,2.60
2018-05-03T02:28:07.760Z,2.60
2018-05-03T02:30:36.101Z,2.50
2018-05-03T02:33:03.660Z,2.50
2018-05-03T02:35:31.210Z,2.40
2018-05-03T02:37:58.770Z,2.30
2018-05-03T02:40:26.332Z,2.30
2018-05-03T02:42:53.908Z,2.20
2018-05-03T02:45:21.456Z,2.20
2018-05-03T02:47:49.021Z,2.10
2018-05-03T02:50:16.588Z,2.00
2018-05-03T02:52:44.144Z,2.00
2018-05-03T02:55:12.484Z,2.30
2018-05-03T02:57:57.520Z,2.30
2018-05-03T03:00:42.588Z,2.50
2018-05-03T03:03:27.588Z,2.60
2018-05-03T03:06:08.872Z,2.70
2018-05-03T03:12:23.151Z,3.00
2018-05-03T03:15:10.420Z,3.00
2018-05-03T03:17:55.513Z,3.10
2018-05-03T03:20:54.256Z,3.30
2018-05-03T03:23:39.344Z,3.40
2018-05-03T03:29:34.340Z,3.70
2018-05-03T03:32:15.584Z,3.70
2018-05-03T03:34:43.128Z,3.80
2018-05-03T03:37:32.217Z,3.90
2018-05-03T03:40:25.057Z,3.90
2018-05-03T03:43:13.368Z,3.90
2018-05-03T03:45:40.916Z,3.90
2018-05-03T03:48:09.232Z,4.00
2018-05-03T03:50:36.811Z,4.00
2018-05-03T03:53:04.364Z,4.00
2018-05-03T03:55:31.916Z,4.10
2018-05-03T03:57:59.464Z,4.10
2018-05-03T04:00:27.015Z,4.10
2018-05-03T04:02:54.588Z,4.20
2018-05-03T04:05:22.140Z,4.30
2018-05-03T04:07:49.696Z,4.30
2018-05-03T04:10:17.244Z,4.30
2018-05-03T04:12:44.796Z,4.40
2018-05-03T04:15:12.360Z,4.40
2018-05-03T04:17:51.750Z,4.50
2018-05-03T04:20:39.712Z,4.60
2018-05-03T04:23:26.835Z,4.60
2018-05-03T04:26:02.178Z,4.70
2018-05-03T04:28:29.736Z,4.70
2018-05-03T04:30:57.312Z,4.70
2018-05-03T04:33:25.628Z,4.90
2018-05-03T04:35:53.176Z,4.90
2018-05-03T04:38:20.728Z,5.00
2018-05-03T04:40:48.285Z,5.10
2018-05-03T04:43:15.832Z,5.30
2018-05-03T04:45:43.385Z,5.40
2018-05-03T04:48:11.779Z,5.50
2018-05-03T04:50:39.331Z,5.60
2018-05-03T04:53:06.895Z,5.80
2018-05-03T04:55:34.440Z,5.90
2018-05-03T04:58:01.988Z,6.00
2018-05-03T05:00:29.542Z,6.10
2018-05-03T05:02:57.862Z,6.30
2018-05-03T05:05:25.441Z,6.30
2018-05-03T05:07:53.041Z,6.40
2018-05-03T05:10:20.577Z,6.60
2018-05-03T05:12:48.131Z,6.60
2018-05-03T05:15:15.685Z,6.70
2018-05-03T05:17:43.291Z,6.80
2018-05-03T05:20:10.840Z,6.80
2018-05-03T05:22:38.395Z,6.70
2018-05-03T05:25:05.959Z,6.70
2018-05-03T05:27:33.521Z,6.70
2018-05-03T05:30:01.089Z,6.60
2018-05-03T05:32:28.645Z,6.70
2018-05-03T05:34:56.211Z,6.70
2018-05-03T05:37:24.528Z,6.80
2018-05-03T05:39:52.091Z,6.80
2018-05-03T05:42:19.656Z,6.90
2018-05-03T05:44:47.208Z,7.00
2018-05-03T05:47:14.762Z,7.20
2018-05-03T05:49:42.434Z,7.30
2018-05-03T05:52:09.988Z,7.40
2018-05-03T05:54:37.564Z,7.50
2018-05-03T05:57:05.120Z,7.70
2018-05-03T05:59:32.757Z,8.00
2018-05-03T06:02:00.312Z,8.10
2018-05-03T06:04:27.860Z,8.30
2018-05-03T06:06:55.436Z,8.40
2018-05-03T06:09:22.976Z,8.70
2018-05-03T06:11:50.528Z,9.20
2018-05-03T06:14:18.076Z,9.60
2018-05-03T06:16:46.528Z,9.90
2018-05-03T06:19:14.087Z,9.90
2018-05-03T06:21:42.412Z,10.50
2018-05-03T06:24:09.987Z,10.50
2018-05-03T06:26:37.552Z,10.70
2018-05-03T06:29:05.112Z,11.20
2018-05-03T06:31:32.660Z,11.10
2018-05-03T06:34:00.211Z,11.10
2018-05-03T06:36:27.780Z,11.20
2018-05-03T06:38:55.381Z,11.30
2018-05-03T06:41:22.925Z,11.70
2018-05-03T06:43:50.492Z,11.90
2018-05-03T06:46:18.809Z,12.00
2018-05-03T06:48:46.388Z,12.10
2018-05-03T06:51:13.935Z,11.70
2018-05-03T06:53:41.483Z,11.50
2018-05-03T06:56:09.038Z,11.30
2018-05-03T06:58:36.605Z,11.10
2018-05-03T07:01:04.203Z,11.10
2018-05-03T07:03:31.784Z,11.10
2018-05-03T07:05:59.343Z,11.20
2018-05-03T07:08:26.908Z,11.30
2018-05-03T07:10:54.456Z,11.30
2018-05-03T07:13:22.028Z,11.40
2018-05-03T07:15:49.580Z,11.40
2018-05-03T07:18:17.132Z,11.40
2018-05-03T07:20:44.699Z,11.60
2018-05-03T07:23:12.248Z,11.70
2018-05-03T07:25:40.588Z,12.30
2018-05-03T07:28:08.139Z,12.30
2018-05-03T07:30:35.688Z,12.80
2018-05-03T07:33:03.244Z,12.50
2018-05-03T07:35:30.843Z,12.40
2018-05-03T07:37:58.387Z,11.80
2018-05-03T07:40:25.945Z,11.60
2018-05-03T07:42:54.274Z,11.60
2018-05-03T07:45:22.024Z,11.50
2018-05-03T07:47:49.572Z,11.80
2018-05-03T07:50:17.158Z,12.20
2018-05-03T07:52:44.718Z,12.10
2018-05-03T07:55:12.282Z,12.60
2018-05-03T07:57:39.834Z,12.50
2018-05-03T08:00:07.386Z,12.60
2018-05-03T08:02:34.967Z,12.70
2018-05-03T08:05:02.535Z,13.10
2018-05-03T08:07:30.086Z,12.90
2018-05-03T08:09:57.638Z,12.60
2018-05-03T08:12:25.188Z,12.90
2018-05-03T08:14:52.776Z,13.20
2018-05-03T08:17:20.329Z,12.80
2018-05-03T08:19:47.896Z,12.60
2018-05-03T08:22:15.490Z,12.70
2018-05-03T08:24:43.787Z,12.70
2018-05-03T08:27:11.364Z,12.70
2018-05-03T08:29:38.916Z,12.70
2018-05-03T08:32:06.476Z,13.50
2018-05-03T08:34:34.024Z,12.60
2018-05-03T08:37:01.589Z,12.80
2018-05-03T08:39:29.168Z,13.50
2018-05-03T08:41:56.734Z,13.20
2018-05-03T08:44:24.291Z,13.30
2018-05-03T08:46:51.840Z,13.00
2018-05-03T08:49:19.388Z,12.60
2018-05-03T08:51:46.968Z,12.30
2018-05-03T08:54:14.524Z,12.10
2018-05-03T08:56:42.076Z,11.90
2018-05-03T08:59:09.624Z,11.90
2018-05-03T09:01:37.270Z,11.90
2018-05-03T09:04:04.784Z,11.90
2018-05-03T09:06:32.341Z,11.90
2018-05-03T09:08:59.896Z,11.90
2018-05-03T09:11:28.223Z,12.30
2018-05-03T09:13:55.773Z,12.30
2018-05-03T09:16:23.353Z,11.90
2018-05-03T09:18:50.902Z,11.80
2018-05-03T09:21:18.456Z,11.60
2018-05-03T09:23:46.009Z,11.60
2018-05-03T09:26:14.333Z,11.10
2018-05-03T09:28:41.909Z,11.10
2018-05-03T09:31:09.461Z,10.90
2018-05-03T09:33:37.015Z,10.70
2018-05-03T09:36:05.327Z,10.70
2018-05-03T09:38:32.880Z,10.70
2018-05-03T09:41:00.455Z,10.60
2018-05-03T09:43:28.005Z,10.20
2018-05-03T09:45:55.552Z,10.20
2018-05-03T09:48:23.102Z,10.20
2018-05-03T09:50:50.757Z,10.10
2018-05-03T09:53:18.328Z,10.00
2018-05-03T09:55:45.872Z,9.90
2018-05-03T09:58:13.417Z,9.90
2018-05-03T10:00:40.965Z,10.00
2018-05-03T10:03:08.512Z,9.90
2018-05-03T10:05:36.852Z,9.70
2018-05-03T10:08:04.399Z,9.70
2018-05-03T10:10:31.952Z,9.60
2018-05-03T10:12:59.497Z,9.50
2018-05-03T10:15:27.049Z,9.40
2018-05-03T10:17:54.617Z,9.50
2018-05-03T10:20:22.172Z,9.50
2018-05-03T10:22:49.719Z,9.40
2018-05-03T10:25:17.273Z,9.30
2018-05-03T10:27:44.819Z,9.20
2018-05-03T10:30:12.406Z,9.40
2018-05-03T10:32:39.956Z,9.40
2018-05-03T10:35:07.500Z,9.30
2018-05-03T10:37:35.053Z,9.30
2018-05-03T10:40:03.368Z,9.20
2018-05-03T10:42:30.932Z,9.20
2018-05-03T10:44:58.476Z,9.10
2018-05-03T10:47:26.020Z,9.10
2018-05-03T10:49:53.568Z,9.00
2018-05-03T10:52:21.117Z,9.00
2018-05-03T10:54:48.689Z,9.00
2018-05-03T10:57:16.235Z,8.90
2018-05-03T10:59:43.823Z,8.90
2018-05-03T11:02:11.367Z,8.90
2018-05-03T11:04:38.918Z,8.90
2018-05-03T11:07:06.492Z,9.00
2018-05-03T11:09:34.056Z,9.20
2018-05-03T11:12:01.601Z,9.00
2018-05-03T11:14:29.155Z,9.00
2018-05-03T11:16:56.707Z,9.00
2018-05-03T11:19:24.252Z,8.90
2018-05-03T11:21:52.592Z,8.90
2018-05-03T11:24:20.141Z,8.90
2018-05-03T11:26:47.691Z,9.00
2018-05-03T11:29:15.252Z,9.00
2018-05-03T11:31:42.800Z,9.30
2018-05-03T11:34:10.350Z,9.40
2018-05-03T11:36:37.954Z,9.50
2018-05-03T11:39:05.491Z,9.40
2018-05-03T11:41:33.080Z,9.20
2018-05-03T11:44:00.628Z,9.10
2018-05-03T11:46:28.175Z,8.90
2018-05-03T11:48:55.728Z,8.90
2018-05-03T11:51:23.278Z,8.90
2018-05-03T11:53:50.820Z,9.00
2018-05-03T11:56:18.375Z,9.00
2018-05-03T11:58:45.930Z,8.90
2018-05-03T12:01:13.488Z,9.00
2018-05-03T12:03:41.060Z,9.00
2018-05-03T12:06:09.384Z,9.00
2018-05-03T12:08:37.706Z,9.10
2018-05-03T12:11:11.361Z,9.10
2018-05-03T12:13:38.919Z,9.10
2018-05-03T12:16:06.494Z,9.00
2018-05-03T12:18:34.040Z,8.90
2018-05-03T12:21:01.589Z,8.80
2018-05-03T12:23:29.140Z,8.80
2018-05-03T12:25:57.452Z,8.80
2018-05-03T12:28:25.072Z,8.80
2018-05-03T12:30:52.616Z,8.70
2018-05-03T12:33:20.171Z,8.70
2018-05-03T12:35:47.716Z,8.80
2018-05-03T12:38:15.256Z,8.90
2018-05-03T12:40:42.837Z,9.00
2018-05-03T12:43:10.389Z,8.90
2018-05-03T12:45:37.936Z,8.90
2018-05-03T12:48:05.483Z,8.80
2018-05-03T12:50:33.038Z,8.70
2018-05-03T12:53:00.617Z,8.70
2018-05-03T12:55:28.164Z,8.80
2018-05-03T12:57:55.710Z,8.70
2018-05-03T13:00:23.256Z,8.70
2018-05-03T13:02:50.800Z,8.80
2018-05-03T13:05:18.368Z,8.60
2018-05-03T13:07:45.923Z,8.50
2018-05-03T13:10:13.506Z,8.50
2018-05-03T13:12:41.064Z,8.50
2018-05-03T13:15:08.618Z,8.60
2018-05-03T13:17:36.192Z,8.40
2018-05-03T13:20:03.762Z,8.40
2018-05-03T13:22:31.320Z,8.30
2018-05-03T13:24:58.864Z,8.30
2018-05-03T13:27:26.408Z,8.20
2018-05-03T13:29:53.984Z,8.20
2018-05-03T13:32:21.540Z,8.30
2018-05-03T13:34:49.084Z,8.20
2018-05-03T13:37:16.627Z,8.20
2018-05-03T13:39:44.178Z,8.10
2018-05-03T13:42:11.756Z,8.00
2018-05-03T13:44:39.302Z,7.90
2018-05-03T13:47:06.848Z,7.80
2018-05-03T13:49:34.395Z,7.70
2018-05-03T13:52:02.705Z,7.60
2018-05-03T13:54:30.276Z,7.60
2018-05-03T13:56:57.824Z,7.50
2018-05-03T13:59:25.378Z,7.50
2018-05-03T14:01:52.935Z,7.40
2018-05-03T14:04:20.485Z,7.50
2018-05-03T14:06:48.061Z,7.40
2018-05-03T14:09:15.608Z,7.40
2018-05-03T14:11:43.155Z,7.30
2018-05-03T14:14:10.700Z,7.30
2018-05-03T14:16:38.245Z,7.20
2018-05-03T14:19:06.583Z,7.10
2018-05-03T14:21:34.140Z,7.20
2018-05-03T14:24:01.689Z,7.10
2018-05-03T14:26:29.363Z,7.10
2018-05-03T14:28:56.919Z,7.00
2018-05-03T14:31:24.488Z,7.10
2018-05-03T14:33:52.034Z,7.20
2018-05-03T14:36:19.588Z,7.10
2018-05-03T14:38:47.144Z,7.20
2018-05-03T14:41:14.688Z,7.10
2018-05-03T14:43:42.260Z,7.10
2018-05-03T14:46:09.804Z,7.10
2018-05-03T14:48:37.361Z,7.10
2018-05-03T14:51:04.912Z,7.10
2018-05-03T14:53:32.465Z,7.10
2018-05-03T14:56:00.036Z,7.10
2018-05-03T14:58:27.585Z,7.10
2018-05-03T15:00:55.185Z,7.10
2018-05-03T15:03:22.715Z,7.00
2018-05-03T15:05:50.261Z,7.10
2018-05-03T15:08:17.840Z,7.00
2018-05-03T15:10:45.396Z,7.00
2018-05-03T15:13:12.940Z,7.00
2018-05-03T15:15:40.489Z,6.90
2018-05-03T15:18:08.071Z,7.00
2018-05-03T15:20:35.639Z,7.00
2018-05-03T15:23:03.190Z,7.00
2018-05-03T15:25:30.740Z,7.00
2018-05-03T15:27:58.284Z,7.00
2018-05-03T15:30:25.844Z,7.00
2018-05-03T15:32:53.420Z,6.90
2018-05-03T15:35:20.964Z,6.90
2018-05-03T15:37:48.544Z,6.90
2018-05-03T15:40:16.088Z,6.90
2018-05-03T15:45:16.344Z,7.00
2018-05-03T15:47:43.908Z,6.90
2018-05-03T15:52:41.143Z,7.00
2018-05-03T15:55:08.687Z,7.00
2018-05-03T15:57:36.261Z,7.00
2018-05-03T16:00:03.808Z,7.00
2018-05-03T16:02:31.364Z,7.00
2018-05-03T16:04:58.917Z,7.00
2018-05-03T16:07:26.468Z,7.00
2018-05-03T16:09:54.043Z,6.90
2018-05-03T16:12:21.594Z,7.00
2018-05-03T16:14:49.141Z,6.90
2018-05-03T16:17:16.688Z,7.00
2018-05-03T16:19:44.237Z,6.90
2018-05-03T16:22:11.810Z,6.90
2018-05-03T16:24:39.356Z,6.90
2018-05-03T16:27:06.958Z,6.90
2018-05-03T16:29:34.482Z,6.90
2018-05-03T16:32:02.049Z,6.90
2018-05-03T16:34:29.646Z,6.80
2018-05-03T16:36:57.172Z,6.90
2018-05-03T16:39:24.719Z,6.90
2018-05-03T16:41:52.264Z,6.90
2018-05-03T16:44:19.844Z,6.80
2018-05-03T16:46:47.422Z,6.90
2018-05-03T16:49:14.961Z,6.90
2018-05-03T16:51:42.504Z,6.80
2018-05-03T16:54:10.844Z,6.90
2018-05-03T16:56:38.420Z,6.90
2018-05-03T16:59:06.000Z,6.90
2018-05-03T17:01:33.569Z,6.90
2018-05-03T17:04:01.165Z,6.80
2018-05-03T17:06:28.760Z,6.90
2018-05-03T17:08:56.352Z,6.90
2018-05-03T17:11:23.935Z,6.90
2018-05-03T17:13:51.497Z,6.80
2018-05-03T17:16:19.061Z,6.90
2018-05-03T17:18:46.621Z,6.90
2018-05-03T17:21:14.226Z,6.90
2018-05-03T17:23:41.792Z,6.90
2018-05-03T17:26:09.383Z,6.90
2018-05-03T17:28:36.974Z,7.00
2018-05-03T17:31:04.549Z,7.00
2018-05-03T17:33:32.150Z,7.00
2018-05-03T17:35:59.733Z,7.00
2018-05-03T17:38:27.303Z,6.90
2018-05-03T17:40:54.872Z,6.90
2018-05-03T17:43:22.456Z,6.90
2018-05-03T17:45:50.072Z,6.90
2018-05-03T17:48:17.640Z,6.80
2018-05-03T17:50:45.212Z,6.80
2018-05-03T17:53:12.786Z,6.80
2018-05-03T17:55:40.352Z,6.80
2018-05-03T17:58:07.953Z,6.80
2018-05-03T18:00:35.541Z,6.80
2018-05-03T18:03:03.119Z,6.80
2018-05-03T18:05:30.716Z,6.80
2018-05-03T18:07:59.236Z,6.80
2018-05-03T18:10:26.818Z,6.80
2018-05-03T18:12:54.381Z,6.80
2018-05-03T18:15:21.945Z,6.80
2018-05-03T18:17:49.496Z,6.80
2018-05-03T18:20:17.053Z,6.80
2018-05-03T18:22:44.634Z,6.80
2018-05-03T18:25:12.197Z,6.80
2018-05-03T18:27:39.773Z,6.80
2018-05-03T18:30:07.333Z,6.80
2018-05-03T18:32:35.494Z,6.80
2018-05-03T18:35:03.296Z,6.80
2018-05-03T18:37:30.860Z,6.80
2018-05-03T18:39:58.418Z,6.80
2018-05-03T18:42:25.970Z,6.90
2018-05-03T18:44:53.528Z,6.90
2018-05-03T18:47:21.111Z,6.80
2018-05-03T18:49:48.751Z,6.80
2018-05-03T18:52:16.260Z,6.80
2018-05-03T18:54:43.823Z,6.80
2018-05-03T18:57:11.397Z,6.80
2018-05-03T18:59:38.989Z,6.80
2018-05-03T19:02:06.545Z,6.80
2018-05-03T19:04:34.867Z,6.80
2018-05-03T19:07:02.435Z,6.80
2018-05-03T19:09:29.992Z,6.80
2018-05-03T19:11:57.637Z,6.80
2018-05-03T19:14:25.258Z,6.80
2018-05-03T19:16:52.761Z,6.80
2018-05-03T19:19:20.325Z,6.80
2018-05-03T19:21:47.882Z,6.80
2018-05-03T19:24:15.477Z,6.90
2018-05-03T19:26:43.688Z,6.90
2018-05-03T19:29:11.245Z,6.80
2018-05-03T19:31:38.797Z,6.90
2018-05-03T19:34:06.353Z,6.80
2018-05-03T19:36:33.949Z,6.80
2018-05-03T19:39:01.518Z,6.80
2018-05-03T19:41:29.076Z,6.80
2018-05-03T19:43:57.742Z,6.80
2018-05-03T19:46:25.362Z,6.70
2018-05-03T19:48:52.954Z,6.70
2018-05-03T19:51:20.529Z,6.80
2018-05-03T19:53:48.105Z,6.80
2018-05-03T19:56:15.704Z,6.80
2018-05-03T19:58:43.286Z,6.80
2018-05-03T20:01:10.881Z,6.80
2018-05-03T20:03:39.267Z,6.80
2018-05-03T20:06:06.809Z,6.70
2018-05-03T20:08:34.401Z,6.80
2018-05-03T20:11:01.970Z,6.70
2018-05-03T20:13:29.600Z,6.60
2018-05-03T20:15:57.173Z,6.60
2018-05-03T20:18:24.778Z,6.60
2018-05-03T20:20:52.381Z,6.50
2018-05-03T20:23:19.966Z,6.50
2018-05-03T20:25:47.553Z,6.40
2018-05-03T20:28:15.578Z,6.50
2018-05-03T20:30:44.018Z,6.40
2018-05-03T20:33:11.589Z,6.30
2018-05-03T20:35:39.167Z,6.30
2018-05-03T20:38:06.773Z,6.20
2018-05-03T20:40:34.364Z,6.20
2018-05-03T20:43:01.931Z,6.20
2018-05-03T20:45:30.289Z,6.20
2018-05-03T20:47:57.873Z,6.20
2018-05-03T20:50:25.469Z,6.20
2018-05-03T20:52:53.812Z,6.10
2018-05-03T20:55:21.417Z,6.10
2018-05-03T20:57:49.093Z,6.10
2018-05-03T21:00:16.597Z,6.00
2018-05-03T21:02:44.190Z,6.10
2018-05-03T21:05:11.772Z,6.10
2018-05-03T21:07:39.372Z,6.00
2018-05-03T21:10:06.946Z,6.10
2018-05-03T21:12:34.584Z,6.10
2018-05-03T21:15:02.150Z,6.10
2018-05-03T21:17:29.766Z,6.10
2018-05-03T21:19:57.355Z,6.10
2018-05-03T21:22:24.948Z,6.10
2018-05-03T21:24:52.544Z,6.10
2018-05-03T21:27:20.141Z,6.10
2018-05-03T21:29:47.744Z,6.10
2018-05-03T21:32:15.364Z,6.20
2018-05-03T21:34:42.977Z,6.20
2018-05-03T21:37:11.312Z,6.30
2018-05-03T21:39:38.901Z,6.20
2018-05-03T21:42:07.253Z,6.20
2018-05-03T21:44:34.872Z,6.20
2018-05-03T21:47:02.475Z,6.30
2018-05-03T21:49:30.114Z,6.30
2018-05-03T21:51:58.031Z,6.30
2018-05-03T21:54:25.635Z,6.30
2018-05-03T21:56:53.257Z,6.40
2018-05-03T21:59:20.865Z,6.30
2018-05-03T22:01:48.695Z,6.30
2018-05-03T22:04:16.326Z,6.30
2018-05-03T22:06:44.721Z,6.40
2018-05-03T22:09:12.300Z,6.40
2018-05-03T22:11:39.889Z,6.40
2018-05-03T22:14:08.073Z,6.40
2018-05-03T22:16:35.708Z,6.40
2018-05-03T22:19:03.313Z,6.50
2018-05-03T22:21:30.928Z,6.50
2018-05-03T22:23:58.532Z,6.50
2018-05-03T22:26:26.128Z,6.60
2018-05-03T22:28:53.736Z,6.60
2018-05-03T22:31:21.334Z,6.60
2018-05-03T22:33:48.919Z,6.60
2018-05-03T22:36:16.753Z,6.60
2018-05-03T22:38:44.808Z,6.60
2018-05-03T22:41:12.417Z,6.60
2018-05-03T22:43:41.517Z,6.60
2018-05-03T22:46:09.137Z,6.70
2018-05-03T22:48:37.526Z,6.70
2018-05-03T22:51:05.110Z,6.60
2018-05-03T22:53:32.691Z,6.70
2018-05-03T22:56:00.268Z,6.70
2018-05-03T22:58:27.870Z,6.70
2018-05-03T23:00:55.461Z,6.70
2018-05-03T23:03:23.037Z,6.70
2018-05-03T23:05:50.659Z,6.70
2018-05-03T23:08:18.277Z,6.70
2018-05-03T23:10:45.906Z,6.70
2018-05-03T23:13:13.481Z,6.80
2018-05-03T23:15:41.131Z,6.80
2018-05-03T23:18:08.732Z,6.80
2018-05-03T23:20:36.312Z,6.80
2018-05-03T23:23:04.643Z,6.70
2018-05-03T23:25:32.216Z,6.70
2018-05-03T23:27:59.868Z,6.60
2018-05-03T23:30:27.493Z,6.50
2018-05-03T23:32:55.113Z,6.50
2018-05-03T23:35:23.513Z,6.50
2018-05-03T23:37:51.099Z,6.50
2018-05-03T23:40:18.688Z,6.50
2018-05-03T23:42:46.284Z,6.50
2018-05-03T23:45:14.620Z,6.40
2018-05-03T23:47:42.185Z,6.40
2018-05-03T23:50:09.757Z,6.50
2018-05-03T23:52:37.346Z,6.50
2018-05-03T23:55:04.937Z,6.50
2018-05-03T23:57:32.515Z,6.60
